Bookmark and Share
Track history (hours):
 

B. John Yeager

More information available from US FCC via Universal Licensing System and Coast Guard Vessel Documentation Center.

Last reported at 2014-Apr-17 08:33 UTC. Time now 2014-Apr-20 03:19 UTC.
Position N 30°45' W 091°30'.

Length 54 m; draft 3.7 m.

Type: Tow > 200 m length. MMSI: 366953860.

NotesDate/timePositionNaut miles runAvg speedWind from/ knotsBaromVisibWave heightAir tempDewpointWater temp
2014-Apr-17 08:33N 30°45' W 091°30'52 2.2
2014-Apr-16 08:18N 30°04' W 090°53'6 3.3
2014-Apr-16 06:33N 29°60' W 090°48'5 4.6
2014-Apr-16 05:33N 30°01' W 090°43'4 4.3
2014-Apr-16 04:33N 30°03' W 090°38'4 4.2
2014-Apr-16 03:33N 30°03' W 090°33'2 1.7
2014-Apr-16 02:33N 30°03' W 090°31'0 0.0
2014-Apr-16 01:33N 30°03' W 090°31'0 0.0
2014-Apr-16 00:33N 30°03' W 090°31'0 0.0
2014-Apr-15 23:33N 30°03' W 090°31'0 0.0
2014-Apr-15 22:33N 30°03' W 090°31'0 0.0
2014-Apr-15 21:33N 30°03' W 090°31'0 0.0
2014-Apr-15 20:33N 30°03' W 090°31'0 0.0
2014-Apr-15 19:33N 30°03' W 090°31'0 0.0
2014-Apr-15 18:33N 30°03' W 090°31'0 0.0
2014-Apr-15 17:33N 30°03' W 090°31'0 0.0
2014-Apr-15 16:33N 30°03' W 090°31'0 0.0
2014-Apr-15 15:33N 30°03' W 090°31'0 0.0
2014-Apr-15 14:33N 30°03' W 090°31'3 1.6
2014-Apr-15 12:30N 30°01' W 090°28'5 2.6
2014-Apr-15 10:34N 29°58' W 090°24'2 1.7
2014-Apr-15 09:31N 29°57' W 090°23'1 0.0
2014-Apr-14 06:33N 29°57' W 090°24'6 6.4
2014-Apr-14 05:33N 30°02' W 090°28'8 1.0
2014-Apr-13 22:22N 30°02' W 090°37'5 5.6
2014-Apr-13 21:33N 30°01' W 090°42'6 6.3
2014-Apr-13 20:33N 29°59' W 090°49'7 5.9
2014-Apr-13 19:18N 30°05' W 090°54'  

Dump ship's entire track history

sailing weather and tide predictions

B. John Yeager — WDB8150 — position and weather